Time;durP1;ratioP1;P1;durP2;ratioP2;P2;SDS_P1;SDS_P2;PMS_P1;PMS_P2;Temp;Humidity;BMP_temperature;BMP_pressure;BME280_temperature;BME280_humidity;BME280_pressure;Samples;Min_cycle;Max_cycle;Signal;HPM_P1;HPM_P2
2022/01/30 00:00:00;;;;;;;55.60;41.10;;;;;;;4.22;91.05;100938.66;5052701;28;20463;-42
2022/01/30 00:02:28;;;;;;;43.23;38.60;;;;;;;4.10;91.67;100967.09;5052658;28;20952;-44
2022/01/30 00:04:55;;;;;;;50.17;42.50;;;;;;;4.02;90.09;100913.41;5052913;28;20523;-41
2022/01/30 00:07:23;;;;;;;47.73;38.60;;;;;;;4.06;93.59;100957.81;5052023;28;20455;-41
2022/01/30 00:09:52;;;;;;;42.87;38.50;;;;;;;4.09;94.76;100925.03;5052468;28;20888;-43
2022/01/30 00:12:28;;;;;;;44.20;39.50;;;;;;;4.13;95.54;100963.31;5052455;28;20439;-41
2022/01/30 00:14:57;;;;;;;41.20;36.93;;;;;;;4.17;96.86;100946.22;5052629;28;20513;-43
2022/01/30 00:17:32;;;;;;;37.10;33.40;;;;;;;4.20;97.10;100920.34;5051639;28;20474;-42
2022/01/30 00:20:03;;;;;;;40.30;33.93;;;;;;;4.27;96.86;100924.03;5052376;28;20469;-43
2022/01/30 00:22:44;;;;;;;33.40;30.90;;;;;;;4.33;96.83;100899.66;5052161;28;20446;-43
2022/01/30 00:25:16;;;;;;;32.20;28.80;;;;;;;4.32;96.93;100916.50;5052285;28;20792;-43
2022/01/30 00:27:55;;;;;;;41.63;30.13;;;;;;;4.38;96.18;100928.25;5051572;28;20474;-42
2022/01/30 00:30:23;;;;;;;55.77;35.70;;;;;;;4.33;96.53;100949.81;5052183;28;20474;-44
2022/01/30 00:32:52;;;;;;;30.30;27.10;;;;;;;4.27;95.57;100934.59;5051607;28;20443;-45
2022/01/30 00:35:36;;;;;;;26.00;22.90;;;;;;;4.27;94.63;100950.44;5052064;28;20442;-46
2022/01/30 00:38:06;;;;;;;25.93;22.10;;;;;;;4.26;95.16;100937.41;5051417;28;20463;-42
2022/01/30 00:40:36;;;;;;;29.73;21.60;;;;;;;4.26;95.10;100921.56;5052031;28;20483;-45
2022/01/30 00:43:05;;;;;;;23.97;21.40;;;;;;;4.24;94.12;100939.38;5050679;28;20497;-45
2022/01/30 00:45:33;;;;;;;25.07;19.77;;;;;;;4.27;95.03;100902.91;5040070;28;20519;-45
2022/01/30 00:48:01;;;;;;;37.50;22.97;;;;;;;4.35;93.50;100933.84;5049656;28;21042;-45
2022/01/30 00:50:29;;;;;;;35.23;19.53;;;;;;;4.38;92.34;100929.09;5051932;28;20462;-45
2022/01/30 00:52:58;;;;;;;24.83;20.40;;;;;;;4.44;91.00;100952.25;5051959;28;20435;-47
2022/01/30 00:55:27;;;;;;;38.27;24.47;;;;;;;4.58;90.57;100916.53;5051853;28;20431;-44
2022/01/30 00:57:57;;;;;;;30.07;27.03;;;;;;;4.68;89.09;100900.59;5050919;28;20473;-45
2022/01/30 01:00:26;;;;;;;32.50;26.90;;;;;;;4.79;87.05;100911.75;5051871;28;20465;-43
2022/01/30 01:02:54;;;;;;;33.07;28.00;;;;;;;4.91;85.28;100917.59;5051802;28;20435;-47
2022/01/30 01:05:22;;;;;;;28.17;25.40;;;;;;;4.99;83.65;100907.91;5051619;28;20438;-48
2022/01/30 01:07:53;;;;;;;31.00;26.00;;;;;;;5.00;85.43;100924.59;5050961;28;20471;-45
2022/01/30 01:10:29;;;;;;;44.43;28.07;;;;;;;5.02;85.48;100914.69;5051601;28;20448;-44
2022/01/30 01:24:04;;;;;;;28.63;23.97;;;;;;;5.23;82.88;100858.75;5051737;28;20438;-45
2022/01/30 01:26:32;;;;;;;39.97;24.63;;;;;;;5.27;81.12;100894.50;5051113;28;21055;-44
2022/01/30 01:29:01;;;;;;;43.60;25.00;;;;;;;5.24;83.65;100889.53;5051179;28;20446;-43
2022/01/30 01:31:29;;;;;;;27.63;23.33;;;;;;;5.23;82.72;100906.34;5051362;28;20447;-42
2022/01/30 01:34:12;;;;;;;33.00;23.63;;;;;;;5.28;81.44;100918.16;5051416;28;20462;-45
2022/01/30 01:36:40;;;;;;;41.67;27.40;;;;;;;5.27;81.18;100913.00;5050882;28;20503;-46
2022/01/30 01:39:08;;;;;;;30.37;25.43;;;;;;;5.33;80.80;100897.34;5051155;28;20431;-42
2022/01/30 01:41:36;;;;;;;34.67;28.33;;;;;;;5.39;79.45;100909.09;5051298;28;20446;-41
2022/01/30 01:44:14;;;;;;;41.67;26.77;;;;;;;5.37;80.87;100890.75;5044144;28;20440;-47
2022/01/30 01:46:43;;;;;;;42.37;28.80;;;;;;;5.36;81.26;100927.91;5042383;28;20984;-42
2022/01/30 01:49:18;;;;;;;40.90;26.47;;;;;;;5.36;81.22;100914.69;5051152;28;20819;-46
2022/01/30 01:51:50;;;;;;;38.40;27.93;;;;;;;5.34;81.80;100922.81;5050767;28;20435;-44
2022/01/30 01:54:18;;;;;;;35.23;26.60;;;;;;;5.38;79.83;100928.56;5050986;28;20420;-43
2022/01/30 01:56:45;;;;;;;30.73;25.17;;;;;;;5.41;79.70;100933.53;5050768;28;20486;-44
2022/01/30 01:59:14;;;;;;;43.90;27.13;;;;;;;5.45;79.82;100938.38;5050953;28;20434;-45
2022/01/30 02:01:44;;;;;;;46.00;27.40;;;;;;;5.40;80.95;100955.72;5051152;28;20952;-42
2022/01/30 02:04:11;;;;;;;29.97;26.83;;;;;;;5.42;80.46;100935.22;5051197;28;20786;-47
2022/01/30 02:06:39;;;;;;;39.93;30.60;;;;;;;5.40;81.69;100937.19;5050467;28;20470;-47
2022/01/30 02:09:11;;;;;;;31.13;26.67;;;;;;;5.40;81.86;100992.75;5051003;28;20428;-42
2022/01/30 02:11:42;;;;;;;40.97;34.50;;;;;;;5.29;85.92;100966.53;5051312;28;20439;-43
2022/01/30 02:14:27;;;;;;;38.00;33.53;;;;;;;5.17;87.33;101021.50;5051262;28;20431;-46
2022/01/30 02:25:33;;;;;;;36.07;32.80;;;;;;;5.21;85.67;101003.53;5054691;28;20518;-42
2022/01/30 02:28:07;;;;;;;37.83;32.70;;;;;;;5.23;85.81;101005.00;5053819;28;20455;-42
2022/01/30 02:30:38;;;;;;;34.90;31.30;;;;;;;5.24;85.67;100987.34;5054524;28;20454;-44
2022/01/30 02:33:06;;;;;;;52.10;32.17;;;;;;;5.20;86.08;100980.69;5054517;28;20504;-46
2022/01/30 02:35:34;;;;;;;44.33;34.60;;;;;;;5.20;85.78;100948.97;5054335;28;20944;-42
2022/01/30 02:38:03;;;;;;;39.30;32.03;;;;;;;5.20;84.09;101007.13;5053508;28;20570;-42
2022/01/30 02:40:35;;;;;;;35.30;32.27;;;;;;;5.16;85.79;101009.28;5054369;28;20467;-42
2022/01/30 02:43:03;;;;;;;41.37;33.20;;;;;;;5.11;86.97;100992.25;5053214;28;20439;-43
2022/01/30 02:45:34;;;;;;;34.40;31.10;;;;;;;5.01;87.87;101026.69;5042498;28;20433;-43
2022/01/30 02:48:15;;;;;;;38.63;31.80;;;;;;;4.99;88.13;101028.63;5052097;28;20451;-45
2022/01/30 02:50:54;;;;;;;42.33;32.03;;;;;;;4.95;88.60;101029.94;5054210;28;20562;-43
2022/01/30 02:53:30;;;;;;;44.87;30.20;;;;;;;4.99;87.98;101041.84;5054178;28;20431;-45
2022/01/30 02:55:58;;;;;;;48.30;33.63;;;;;;;5.01;88.15;101011.66;5054200;28;20442;-43
2022/01/30 02:58:26;;;;;;;43.77;32.03;;;;;;;4.99;88.76;101021.53;5053386;28;20476;-42
2022/01/30 03:00:53;;;;;;;38.23;32.90;;;;;;;4.94;90.51;101021.19;5053571;28;20469;-43
2022/01/30 03:03:21;;;;;;;33.80;30.37;;;;;;;4.91;89.34;101013.56;5053743;28;20940;-43
2022/01/30 03:05:49;;;;;;;50.70;32.57;;;;;;;4.91;87.18;101029.41;5053745;28;20435;-49
2022/01/30 03:08:16;;;;;;;38.20;31.13;;;;;;;4.94;85.38;101018.53;5053058;28;21035;-44
2022/01/30 03:10:45;;;;;;;34.20;29.50;;;;;;;4.94;85.11;100992.09;5053827;28;20451;-43
2022/01/30 03:13:13;;;;;;;35.23;30.40;;;;;;;4.99;85.19;100986.34;5053604;28;20800;-43
2022/01/30 03:15:40;;;;;;;32.50;29.70;;;;;;;4.98;84.74;100974.97;5053798;28;20750;-44
2022/01/30 03:18:08;;;;;;;38.90;30.20;;;;;;;4.98;85.66;101004.03;5052849;28;20482;-45
2022/01/30 03:20:36;;;;;;;38.27;30.07;;;;;;;5.00;84.83;100951.00;5053647;28;20455;-45
2022/01/30 03:23:04;;;;;;;34.83;30.20;;;;;;;5.04;84.43;101031.66;5053608;28;20441;-45
2022/01/30 03:25:32;;;;;;;33.53;30.40;;;;;;;5.06;85.53;101020.94;5053430;28;20441;-48
2022/01/30 03:28:04;;;;;;;34.90;30.27;;;;;;;5.05;86.94;101024.56;5052113;28;20474;-44
2022/01/30 03:30:32;;;;;;;44.53;32.13;;;;;;;5.05;86.79;100993.66;5053437;28;20451;-44
2022/01/30 03:33:01;;;;;;;52.37;33.10;;;;;;;5.01;88.10;101008.19;5053385;28;20439;-42
2022/01/30 03:35:28;;;;;;;40.27;31.90;;;;;;;5.03;88.00;100969.22;5053191;28;20929;-44
2022/01/30 03:37:56;;;;;;;38.80;29.87;;;;;;;5.09;87.04;100992.38;5051819;28;21006;-46
2022/01/30 03:40:23;;;;;;;52.87;30.80;;;;;;;5.12;87.21;101028.25;5052903;28;21181;-45
2022/01/30 03:42:51;;;;;;;38.23;29.00;;;;;;;5.20;87.43;101021.19;5053196;28;20435;-43
2022/01/30 03:45:20;;;;;;;41.63;30.80;;;;;;;5.22;86.88;100974.28;5053232;28;20434;-43
2022/01/30 03:47:47;;;;;;;59.30;35.23;;;;;;;5.28;87.16;101023.91;5051833;28;20463;-42
2022/01/30 03:50:15;;;;;;;34.97;29.13;;;;;;;5.28;87.22;101038.94;5052988;28;20486;-43
2022/01/30 03:52:43;;;;;;;35.17;30.30;;;;;;;5.31;85.94;101063.25;5052831;28;20431;-44
2022/01/30 03:55:11;;;;;;;35.57;31.60;;;;;;;5.37;84.34;101053.88;5052648;28;20434;-45
2022/01/30 03:57:39;;;;;;;41.00;31.13;;;;;;;5.38;85.09;101037.00;5051610;28;20478;-45
2022/01/30 04:00:08;;;;;;;41.03;31.23;;;;;;;5.38;84.54;101043.13;5052650;28;20463;-47
2022/01/30 04:02:37;;;;;;;33.93;29.53;;;;;;;5.38;84.16;101059.00;5053166;28;20440;-44
2022/01/30 04:05:05;;;;;;;34.07;28.60;;;;;;;5.37;84.25;101053.88;5052636;28;20467;-43
2022/01/30 04:07:33;;;;;;;31.33;28.30;;;;;;;5.39;83.42;101033.38;5051503;28;20455;-46
2022/01/30 04:10:02;;;;;;;35.30;30.43;;;;;;;5.37;83.58;101030.91;5052718;28;20489;-43
2022/01/30 04:12:32;;;;;;;31.93;28.93;;;;;;;5.32;84.53;101043.75;5052706;28;20450;-47
2022/01/30 04:15:01;;;;;;;43.63;29.57;;;;;;;5.26;86.85;101086.66;5052583;28;20434;-45
2022/01/30 04:17:29;;;;;;;34.63;28.67;;;;;;;5.25;85.67;101073.63;5050829;28;20463;-48
2022/01/30 04:19:58;;;;;;;38.03;29.03;;;;;;;5.26;85.67;101073.44;5052305;28;20451;-48
2022/01/30 04:22:25;;;;;;;34.60;30.33;;;;;;;5.29;85.47;101072.31;5052516;28;20463;-43
2022/01/30 04:24:53;;;;;;;36.80;29.00;;;;;;;5.30;84.96;101063.41;5052694;28;20428;-43
2022/01/30 04:27:21;;;;;;;36.10;29.10;;;;;;;5.31;85.99;101128.53;5051398;28;20455;-42
2022/01/30 04:29:49;;;;;;;41.80;30.70;;;;;;;5.35;84.31;101098.13;5052206;28;20452;-47
2022/01/30 04:32:17;;;;;;;43.63;29.27;;;;;;;5.37;84.39;101080.31;5051866;28;20447;-45
2022/01/30 04:34:53;;;;;;;34.33;30.73;;;;;;;5.33;85.23;101095.66;5051765;28;20435;-46
2022/01/30 04:37:29;;;;;;;42.67;28.70;;;;;;;5.34;85.68;101096.50;5051127;28;20832;-46
2022/01/30 04:40:34;;;;;;;47.23;31.00;;;;;;;5.36;85.00;101108.56;5051873;28;20475;-43
2022/01/30 04:54:55;;;;;;;42.43;29.13;;;;;;;5.49;79.99;101113.47;5052020;28;20431;-44
2022/01/30 05:00:09;;;;;;;42.57;30.20;;;;;;;5.35;83.99;101148.38;5051642;28;20992;-45
2022/01/30 05:02:50;;;;;;;33.13;28.10;;;;;;;5.26;84.12;101152.78;5051854;28;20441;-45
2022/01/30 05:05:44;;;;;;;47.97;30.07;;;;;;;5.19;83.69;101182.63;5051811;28;20431;-47
2022/01/30 05:08:12;;;;;;;40.50;30.33;;;;;;;5.14;84.35;101179.63;5051010;28;20470;-45
2022/01/30 05:10:41;;;;;;;38.13;29.40;;;;;;;5.10;84.87;101155.28;5051492;28;20448;-47
2022/01/30 05:13:14;;;;;;;51.70;31.17;;;;;;;5.10;86.01;101209.97;5051764;28;20432;-42
2022/01/30 05:15:43;;;;;;;40.60;28.60;;;;;;;5.08;85.03;101194.25;5051814;28;20514;-43
2022/01/30 05:18:11;;;;;;;31.60;28.27;;;;;;;5.07;83.93;101186.47;5050795;28;20474;-45
2022/01/30 05:20:39;;;;;;;33.80;28.47;;;;;;;5.01;85.74;101191.41;5051361;28;20451;-46
2022/01/30 05:23:08;;;;;;;30.50;27.70;;;;;;;5.02;83.77;101195.69;5051702;28;20526;-46
2022/01/30 05:25:37;;;;;;;46.00;30.27;;;;;;;5.07;83.13;101202.34;5051417;28;20961;-47
2022/01/30 05:28:08;;;;;;;32.70;29.70;;;;;;;5.12;82.79;101160.41;5050773;28;20467;-50
2022/01/30 05:30:37;;;;;;;35.43;30.47;;;;;;;5.09;81.91;101206.50;5051425;28;20872;-45
2022/01/30 05:33:05;;;;;;;36.07;30.77;;;;;;;5.12;81.57;101147.19;5051335;28;20496;-46
2022/01/30 05:35:33;;;;;;;32.30;28.97;;;;;;;5.16;81.26;101220.78;5051517;28;20436;-42
2022/01/30 05:38:04;;;;;;;32.77;29.73;;;;;;;5.19;81.28;101209.06;5050570;28;20463;-43
2022/01/30 05:40:34;;;;;;;35.20;31.30;;;;;;;5.15;83.03;101221.75;5051133;28;20475;-45
2022/01/30 05:43:02;;;;;;;34.73;31.13;;;;;;;5.12;81.28;101234.44;5050369;28;20446;-42
2022/01/30 05:45:36;;;;;;;36.90;32.47;;;;;;;5.11;81.24;101246.00;5039544;28;20802;-46
2022/01/30 05:48:09;;;;;;;34.30;30.77;;;;;;;5.09;81.82;101254.06;5049462;28;20467;-44
2022/01/30 05:50:37;;;;;;;33.40;30.20;;;;;;;5.07;81.26;101247.28;5051327;28;20817;-43
2022/01/30 05:53:05;;;;;;;43.93;32.13;;;;;;;5.05;82.59;101228.91;5052619;28;20457;-46
2022/01/30 05:55:33;;;;;;;35.87;32.23;;;;;;;5.05;82.87;101242.13;5055116;28;20597;-45
2022/01/30 05:58:01;;;;;;;43.87;33.10;;;;;;;4.99;84.31;101238.28;5054238;28;20467;-48
2022/01/30 06:00:29;;;;;;;43.00;32.80;;;;;;;4.96;85.07;101253.59;5054758;28;21015;-43
2022/01/30 06:02:58;;;;;;;34.23;30.30;;;;;;;4.95;84.70;101247.50;5055173;28;20439;-43
2022/01/30 06:05:26;;;;;;;50.07;31.23;;;;;;;4.93;83.92;101248.59;5055036;28;20477;-49
2022/01/30 06:07:55;;;;;;;34.43;30.20;;;;;;;5.05;79.99;101268.56;5054160;28;21020;-42
2022/01/30 06:10:26;;;;;;;33.80;30.27;;;;;;;5.02;82.51;101251.19;5054594;28;20987;-46
2022/01/30 06:12:54;;;;;;;43.67;32.20;;;;;;;4.98;80.14;101270.97;5054785;28;20934;-45
2022/01/30 06:15:21;;;;;;;39.70;33.13;;;;;;;5.05;78.63;101236.03;5054399;28;20945;-42
2022/01/30 06:17:49;;;;;;;32.37;29.67;;;;;;;5.14;76.62;101262.38;5053977;28;20467;-46
2022/01/30 06:20:18;;;;;;;34.43;31.47;;;;;;;5.10;77.94;101284.00;5054610;28;20479;-45
2022/01/30 06:22:46;;;;;;;33.97;31.00;;;;;;;5.07;78.01;101302.78;5054598;28;20956;-45
2022/01/30 06:25:14;;;;;;;36.67;32.60;;;;;;;5.05;79.80;101286.25;5054541;28;20427;-44
2022/01/30 06:27:42;;;;;;;36.60;33.30;;;;;;;5.02;80.91;101274.97;5053882;28;20467;-43
2022/01/30 06:30:10;;;;;;;36.63;32.47;;;;;;;5.05;81.55;101273.03;5054352;28;20969;-44
2022/01/30 06:32:38;;;;;;;36.57;32.37;;;;;;;5.03;80.89;101291.69;5054267;28;20434;-45
2022/01/30 06:35:06;;;;;;;49.33;33.63;;;;;;;4.99;83.03;101322.00;5053936;28;20431;-46
2022/01/30 06:37:35;;;;;;;45.23;34.63;;;;;;;4.95;84.32;101332.06;5053044;28;20463;-46
2022/01/30 06:40:04;;;;;;;35.07;31.63;;;;;;;4.98;82.85;101312.44;5053470;28;20482;-46
2022/01/30 06:42:32;;;;;;;37.20;33.50;;;;;;;4.96;82.89;101312.56;5053804;28;20780;-47
2022/01/30 06:45:00;;;;;;;37.67;33.87;;;;;;;4.97;84.03;101335.38;5044683;28;20431;-45
2022/01/30 06:47:28;;;;;;;38.03;33.93;;;;;;;4.95;84.36;101302.16;5046997;28;20470;-44
2022/01/30 06:49:55;;;;;;;45.20;34.50;;;;;;;4.99;83.15;101345.78;5053554;28;20451;-43
2022/01/30 06:52:23;;;;;;;42.00;33.70;;;;;;;5.02;82.86;101416.88;5053733;28;20549;-43
2022/01/30 06:54:52;;;;;;;38.77;33.90;;;;;;;5.09;79.73;101417.13;5053996;28;20435;-43
2022/01/30 06:57:19;;;;;;;38.90;35.37;;;;;;;5.08;79.50;101404.91;5053286;28;20466;-42
2022/01/30 06:59:47;;;;;;;46.10;32.00;;;;;;;5.07;77.45;101392.66;5053630;28;20485;-45
2022/01/30 07:02:14;;;;;;;33.30;30.73;;;;;;;5.02;75.48;101399.22;5054012;28;20431;-44
2022/01/30 07:04:44;;;;;;;40.77;31.97;;;;;;;5.04;76.05;101401.72;5053463;28;20832;-48
2022/01/30 07:07:11;;;;;;;38.10;33.17;;;;;;;4.97;76.46;101446.41;5053189;28;20557;-44
2022/01/30 07:09:39;;;;;;;33.63;30.13;;;;;;;5.05;74.76;101389.34;5053425;28;20542;-42
2022/01/30 07:12:09;;;;;;;30.00;24.10;;;;;;;5.05;74.89;101426.34;5053351;28;20439;-43
2022/01/30 07:14:37;;;;;;;27.80;24.97;;;;;;;4.98;75.16;101402.31;5045345;28;20510;-45
2022/01/30 07:17:05;;;;;;;23.47;21.50;;;;;;;4.99;75.05;101452.38;5053039;28;20474;-47
2022/01/30 07:19:32;;;;;;;28.73;21.30;;;;;;;5.01;76.35;101437.22;5053274;28;20949;-45
2022/01/30 07:22:00;;;;;;;29.13;19.80;;;;;;;5.02;77.02;101417.72;5053610;28;20451;-46
2022/01/30 07:24:27;;;;;;;39.90;21.20;;;;;;;5.01;77.56;101418.72;5053573;28;20435;-45
2022/01/30 07:26:55;;;;;;;27.77;20.07;;;;;;;5.03;77.39;101419.38;5052965;28;20844;-47
2022/01/30 07:29:24;;;;;;;45.33;21.80;;;;;;;5.03;77.77;101471.41;5053167;28;20451;-44
2022/01/30 07:31:52;;;;;;;38.73;21.20;;;;;;;5.01;76.82;101453.06;5053281;28;20431;-47
2022/01/30 07:34:20;;;;;;;28.43;16.43;;;;;;;5.12;73.26;101480.31;5053437;28;20431;-44
2022/01/30 07:36:50;;;;;;;21.93;15.00;;;;;;;5.14;73.31;101457.22;5051322;28;20525;-44
2022/01/30 07:39:18;;;;;;;18.23;10.30;;;;;;;5.21;68.16;101468.88;5052860;28;20443;-43
2022/01/30 07:41:46;;;;;;;18.50;10.43;;;;;;;5.25;66.99;101501.97;5053140;28;20446;-44
2022/01/30 07:44:13;;;;;;;28.90;9.37;;;;;;;5.21;67.95;101472.34;5045833;28;20434;-43
2022/01/30 07:46:43;;;;;;;27.50;10.53;;;;;;;5.25;64.79;101478.19;5044027;28;20844;-44
2022/01/30 07:49:11;;;;;;;20.63;10.67;;;;;;;5.19;65.51;101487.53;5052912;28;20490;-50
2022/01/30 07:51:38;;;;;;;47.23;12.37;;;;;;;5.20;65.76;101462.72;5051080;28;20450;-46
2022/01/30 07:54:06;;;;;;;30.90;11.20;;;;;;;5.21;65.79;101498.78;5052280;28;20751;-45
2022/01/30 07:56:34;;;;;;;31.63;9.93;;;;;;;5.20;66.18;101518.25;5052139;28;20463;-46
2022/01/30 07:59:01;;;;;;;38.93;12.20;;;;;;;5.17;67.68;101515.91;5052326;28;20427;-45
2022/01/30 08:01:29;;;;;;;47.10;13.07;;;;;;;5.21;68.41;101529.69;5052804;28;20475;-44
2022/01/30 08:03:58;;;;;;;25.63;10.67;;;;;;;5.21;66.05;101522.59;5052602;28;20441;-45
2022/01/30 08:06:26;;;;;;;34.53;12.40;;;;;;;5.24;66.63;101548.75;5051559;28;20984;-42
2022/01/30 08:08:53;;;;;;;41.00;13.13;;;;;;;5.26;67.00;101535.38;5052451;28;20435;-48
2022/01/30 08:11:22;;;;;;;26.17;13.73;;;;;;;5.27;67.12;101556.41;5052433;28;20458;-43
2022/01/30 08:13:49;;;;;;;26.47;10.67;;;;;;;5.29;66.81;101545.66;5052267;28;20431;-45
2022/01/30 08:16:18;;;;;;;27.87;12.20;;;;;;;5.30;64.99;101565.84;5046039;28;20442;-48
2022/01/30 08:18:46;;;;;;;31.23;14.70;;;;;;;5.28;65.54;101571.28;5028824;28;20436;-43
2022/01/30 08:21:15;;;;;;;36.47;11.20;;;;;;;5.28;65.70;101551.94;5038174;28;20640;-47
2022/01/30 08:23:43;;;;;;;27.00;12.70;;;;;;;5.32;64.44;101590.34;5049125;28;20901;-43
2022/01/30 08:26:10;;;;;;;31.00;13.60;;;;;;;5.34;64.00;101599.81;5049709;28;20462;-48
2022/01/30 08:28:38;;;;;;;34.70;12.13;;;;;;;5.31;63.91;101539.28;5048156;28;21064;-47
2022/01/30 08:31:05;;;;;;;28.63;10.70;;;;;;;5.37;64.86;101617.22;5029028;28;20445;-45
2022/01/30 08:33:33;;;;;;;39.67;11.80;;;;;;;5.37;65.00;101582.81;5040269;28;20431;-46
2022/01/30 08:36:01;;;;;;;25.37;11.10;;;;;;;5.38;64.24;101598.53;5033553;28;20440;-44
2022/01/30 08:38:30;;;;;;;32.97;11.13;;;;;;;5.40;63.37;101595.75;5027318;28;20433;-46
2022/01/30 08:41:00;;;;;;;26.50;10.90;;;;;;;5.33;64.92;101576.13;5025387;28;20484;-45
2022/01/30 08:43:27;;;;;;;19.53;8.23;;;;;;;5.36;61.77;101610.25;5027140;28;20467;-47
2022/01/30 08:45:55;;;;;;;31.03;11.10;;;;;;;5.36;60.96;101571.41;5027875;28;20436;-46
2022/01/30 08:48:23;;;;;;;37.60;10.43;;;;;;;5.37;60.29;101611.91;5027320;28;20887;-48
2022/01/30 08:50:51;;;;;;;22.67;9.17;;;;;;;5.34;61.90;101591.03;5025813;28;20459;-48
2022/01/30 08:53:19;;;;;;;21.93;9.20;;;;;;;5.35;60.88;101606.75;5026420;28;20436;-44
2022/01/30 08:55:48;;;;;;;30.73;11.23;;;;;;;5.38;62.58;101603.81;5027535;28;20432;-47
2022/01/30 08:58:16;;;;;;;27.80;11.23;;;;;;;5.34;63.31;101626.28;5026271;28;20498;-45
2022/01/30 09:00:45;;;;;;;21.63;10.23;;;;;;;5.35;62.69;101638.50;5026686;28;20484;-42
2022/01/30 09:03:14;;;;;;;29.37;12.73;;;;;;;5.36;64.40;101632.25;5027246;28;20475;-45
2022/01/30 09:05:42;;;;;;;30.03;12.00;;;;;;;5.36;64.14;101641.97;5028372;28;20433;-42
2022/01/30 09:08:10;;;;;;;27.53;11.17;;;;;;;5.34;65.66;101631.56;5027611;28;20833;-46
2022/01/30 09:10:41;;;;;;;32.53;11.00;;;;;;;5.35;65.39;101677.31;5025584;28;20452;-45
2022/01/30 09:13:10;;;;;;;29.03;10.70;;;;;;;5.35;66.37;101688.75;5026567;28;20526;-45
2022/01/30 09:15:40;;;;;;;29.13;12.60;;;;;;;5.38;67.87;101682.34;5027344;28;20433;-44
2022/01/30 09:18:10;;;;;;;33.60;12.33;;;;;;;5.37;66.73;101691.28;5026599;28;20461;-46
2022/01/30 09:20:39;;;;;;;28.50;12.10;;;;;;;5.37;67.14;101712.44;5026069;28;20483;-43
2022/01/30 09:23:08;;;;;;;25.83;11.40;;;;;;;5.38;67.44;101677.06;5025362;28;20926;-44
2022/01/30 09:25:35;;;;;;;29.00;13.60;;;;;;;5.36;69.04;101693.06;5027489;28;20436;-43
2022/01/30 09:28:03;;;;;;;43.03;13.63;;;;;;;5.42;67.67;101687.22;5029655;28;20471;-44
2022/01/30 09:30:33;;;;;;;30.87;13.10;;;;;;;5.47;68.46;101686.78;5030233;28;21077;-47
2022/01/30 09:33:01;;;;;;;17.93;11.10;;;;;;;5.45;67.44;101731.06;5030079;28;20455;-42
2022/01/30 09:35:29;;;;;;;28.97;11.47;;;;;;;5.42;68.20;101713.69;5030781;28;20802;-48
2022/01/30 09:37:56;;;;;;;39.93;12.43;;;;;;;5.47;68.60;101695.56;5031187;28;20464;-47
2022/01/30 09:40:24;;;;;;;46.20;14.07;;;;;;;5.46;67.99;101732.75;5030062;28;20562;-45
2022/01/30 09:42:52;;;;;;;30.33;11.13;;;;;;;5.41;68.41;101719.94;5030803;28;20455;-48
2022/01/30 09:45:22;;;;;;;31.37;13.33;;;;;;;5.49;67.92;101713.97;5031726;28;20444;-44
2022/01/30 09:47:51;;;;;;;29.80;12.13;;;;;;;5.44;66.63;101631.53;5031105;28;20460;-47
2022/01/30 09:50:22;;;;;;;26.67;11.13;;;;;;;5.44;66.83;101724.94;5030254;28;20480;-44
2022/01/30 09:52:50;;;;;;;23.07;11.77;;;;;;;5.52;65.34;101726.91;5030851;28;20810;-45
2022/01/30 09:55:17;;;;;;;27.40;11.87;;;;;;;5.55;65.53;101727.44;5031226;28;20440;-48
2022/01/30 09:57:47;;;;;;;37.07;13.33;;;;;;;5.56;65.80;101754.75;5029516;28;20843;-45
2022/01/30 10:00:16;;;;;;;30.13;13.03;;;;;;;5.53;64.47;101769.09;5029563;28;20475;-47
2022/01/30 10:02:45;;;;;;;21.47;11.40;;;;;;;5.59;63.37;101744.72;5030895;28;20472;-42
2022/01/30 10:05:16;;;;;;;26.10;11.20;;;;;;;5.58;65.27;101745.69;5030899;28;20959;-46
2022/01/30 10:07:46;;;;;;;36.87;13.30;;;;;;;5.63;64.84;101755.88;5030020;28;20460;-44
2022/01/30 10:10:17;;;;;;;24.43;12.30;;;;;;;5.63;64.89;101757.66;5028952;28;20475;-45
2022/01/30 10:13:06;;;;;;;21.53;11.77;;;;;;;5.66;63.16;101773.25;5030622;28;20917;-45
2022/01/30 10:15:51;;;;;;;26.83;13.43;;;;;;;5.63;64.64;101787.63;5030608;28;20432;-44
2022/01/30 10:18:20;;;;;;;20.70;12.17;;;;;;;5.65;62.65;101766.28;5029975;28;20468;-47
2022/01/30 10:20:49;;;;;;;26.30;11.50;;;;;;;5.70;62.67;101809.06;5028443;28;20471;-46
2022/01/30 10:23:17;;;;;;;22.97;11.30;;;;;;;5.69;60.68;101799.44;5030281;28;20436;-44
2022/01/30 10:25:53;;;;;;;31.10;13.33;;;;;;;5.72;62.39;101802.66;5029297;28;20440;-45
2022/01/30 10:28:27;;;;;;;22.77;13.50;;;;;;;5.69;61.29;101797.66;5029598;28;20841;-46
2022/01/30 10:30:56;;;;;;;23.57;12.03;;;;;;;5.75;60.62;101793.59;5028866;28;20463;-43
2022/01/30 10:33:39;;;;;;;28.77;13.43;;;;;;;5.76;61.06;101793.47;5028798;28;20440;-43
2022/01/30 10:36:09;;;;;;;28.23;9.80;;;;;;;5.75;60.19;101788.31;5029361;28;20447;-45
2022/01/30 10:38:40;;;;;;;21.33;10.50;;;;;;;5.77;60.42;101795.13;5029096;28;20520;-48
2022/01/30 10:41:12;;;;;;;21.30;11.83;;;;;;;5.81;61.62;101783.28;5029515;28;20444;-47
2022/01/30 10:43:52;;;;;;;26.97;11.10;;;;;;;5.83;60.16;101794.56;5028821;28;20436;-44
2022/01/30 10:46:21;;;;;;;17.23;10.03;;;;;;;5.78;58.77;101757.09;5028861;28;20551;-50
2022/01/30 10:48:56;;;;;;;29.23;11.17;;;;;;;5.79;60.96;101821.47;5029693;28;20432;-48
2022/01/30 10:51:26;;;;;;;21.40;11.27;;;;;;;5.86;59.94;101812.00;5028206;28;20428;-46
2022/01/30 10:53:55;;;;;;;21.97;10.80;;;;;;;5.86;60.01;101812.00;5029529;28;20432;-49
2022/01/30 10:56:25;;;;;;;14.67;11.80;;;;;;;5.85;60.06;101823.56;5028224;28;20473;-44
2022/01/30 10:59:05;;;;;;;25.23;11.43;;;;;;;5.88;59.62;101804.78;5029192;28;20496;-44
2022/01/30 11:01:33;;;;;;;28.70;11.47;;;;;;;5.84;57.17;101828.00;5028723;28;21153;-45
2022/01/30 11:04:01;;;;;;;22.40;12.00;;;;;;;5.90;58.35;101822.19;5027877;28;20436;-45
2022/01/30 11:06:31;;;;;;;23.40;11.30;;;;;;;5.91;57.16;101830.97;5029063;28;20499;-47
2022/01/30 11:09:06;;;;;;;18.90;10.77;;;;;;;5.88;57.60;101849.78;5028639;28;20429;-43
2022/01/30 11:11:39;;;;;;;22.63;10.43;;;;;;;5.90;57.40;101858.41;5029031;28;20439;-45
2022/01/30 11:14:20;;;;;;;18.73;9.97;;;;;;;5.88;56.81;101841.84;5029405;28;20441;-49
2022/01/30 11:16:59;;;;;;;26.63;11.27;;;;;;;5.99;57.06;101845.19;5029300;28;20476;-44
2022/01/30 11:19:27;;;;;;;16.70;10.20;;;;;;;5.90;57.13;101810.75;5028996;28;20444;-46
2022/01/30 11:22:00;;;;;;;30.30;10.93;;;;;;;5.93;58.08;101858.13;5028275;28;20812;-42
2022/01/30 11:24:28;;;;;;;16.83;10.03;;;;;;;5.87;58.83;101851.59;5029308;28;20436;-47
2022/01/30 11:26:56;;;;;;;19.70;10.40;;;;;;;5.83;57.58;101862.56;5031771;28;20468;-43
2022/01/30 11:29:24;;;;;;;21.20;9.80;;;;;;;5.89;58.05;101865.53;5032777;28;20460;-48
2022/01/30 11:31:51;;;;;;;23.60;9.63;;;;;;;5.90;59.46;101877.78;5033889;28;20455;-43
2022/01/30 11:34:19;;;;;;;17.63;9.80;;;;;;;5.91;59.64;101860.09;5032419;28;20440;-45
2022/01/30 11:36:49;;;;;;;17.27;12.03;;;;;;;5.93;59.36;101861.63;5032803;28;20468;-45
2022/01/30 11:39:19;;;;;;;19.50;8.83;;;;;;;5.90;60.81;101867.19;5033546;28;20443;-44
2022/01/30 11:42:12;;;;;;;22.43;10.43;;;;;;;5.88;60.06;101858.56;5033865;28;21082;-45
2022/01/30 11:44:40;;;;;;;13.17;8.17;;;;;;;5.89;59.90;101851.44;5041191;28;20428;-44
2022/01/30 11:47:24;;;;;;;16.17;9.40;;;;;;;5.91;59.56;101905.91;5044301;28;20865;-46
2022/01/30 11:50:05;;;;;;;25.73;10.60;;;;;;;5.95;61.86;101854.38;5052513;28;21051;-42
2022/01/30 11:52:55;;;;;;;22.53;10.23;;;;;;;5.90;61.00;101875.13;5053056;28;20432;-47
2022/01/30 11:56:04;;;;;;;17.57;9.00;;;;;;;5.90;60.08;101853.13;5052758;28;20439;-45
2022/01/30 11:58:41;;;;;;;24.13;8.80;;;;;;;5.92;59.92;101864.41;5046329;28;20456;-43
2022/01/30 12:01:36;;;;;;;26.80;8.90;;;;;;;5.99;60.98;101857.59;5051884;28;20474;-46
2022/01/30 12:04:09;;;;;;;13.60;9.03;;;;;;;6.01;59.79;101877.66;5049075;28;20992;-45